Time;durP1;ratioP1;P1;durP2;ratioP2;P2;SDS_P1;SDS_P2;PMS_P1;PMS_P2;Temp;Humidity;BMP_temperature;BMP_pressure;BME280_temperature;BME280_humidity;BME280_pressure;Samples;Min_cycle;Max_cycle;Signal;HPM_P1;HPM_P2
2021/12/22 00:02:11;;;;;;;16.75;10.35;;;1.20;82.50;;;;;;4881999;29;20057;-84
2021/12/22 00:04:44;;;;;;;22.88;13.45;;;1.20;82.50;;;;;;4891191;29;20025;-84
2021/12/22 00:07:11;;;;;;;27.50;9.25;;;1.20;82.80;;;;;;4882869;29;20053;-84
2021/12/22 00:09:37;;;;;;;33.45;16.67;;;1.10;82.90;;;;;;4881498;29;20017;-85
2021/12/22 00:12:03;;;;;;;26.88;13.88;;;1.20;82.70;;;;;;4880414;29;20116;-84
2021/12/22 00:14:29;;;;;;;34.60;13.75;;;1.00;83.10;;;;;;4882073;29;20400;-84
2021/12/22 00:16:55;;;;;;;26.20;13.32;;;1.10;83.00;;;;;;4881116;29;20081;-84
2021/12/22 00:19:20;;;;;;;16.67;8.55;;;1.10;82.80;;;;;;4870897;29;20058;-84
2021/12/22 00:21:46;;;;;;;14.40;9.60;;;1.10;82.80;;;;;;4862479;29;20041;-84
2021/12/22 00:24:15;;;;;;;28.08;15.02;;;1.20;82.70;;;;;;4864391;29;20404;-84
2021/12/22 00:26:41;;;;;;;22.77;10.15;;;0.90;83.30;;;;;;4862444;29;20025;-84
2021/12/22 00:29:08;;;;;;;21.30;12.73;;;1.00;83.30;;;;;;4878848;29;20116;-84
2021/12/22 00:31:56;;;;;;;15.63;9.90;;;1.00;83.10;;;;;;4882754;29;20025;-84
2021/12/22 00:34:20;;;;;;;22.88;11.88;;;1.00;83.00;;;;;;4880974;29;20063;-85
2021/12/22 00:36:46;;;;;;;22.85;10.38;;;0.90;83.10;;;;;;4881966;29;20426;-85
2021/12/22 00:39:11;;;;;;;21.92;11.82;;;0.70;83.40;;;;;;4879917;29;20035;-84
2021/12/22 00:41:38;;;;;;;31.45;11.02;;;0.80;83.40;;;;;;4882384;29;20075;-84
2021/12/22 00:44:04;;;;;;;31.30;16.05;;;0.70;83.60;;;;;;4879335;29;20105;-85
2021/12/22 00:46:40;;;;;;;20.40;9.48;;;0.80;83.30;;;;;;4881200;29;20033;-85
2021/12/22 00:49:06;;;;;;;23.42;14.65;;;0.70;83.40;;;;;;4882184;29;20032;-84
2021/12/22 00:51:31;;;;;;;19.58;10.50;;;0.70;83.40;;;;;;4874135;29;20026;-84
2021/12/22 00:53:57;;;;;;;15.75;8.30;;;0.70;83.50;;;;;;4863814;29;21021;-85
2021/12/22 00:56:23;;;;;;;15.55;9.40;;;0.70;83.40;;;;;;4862230;29;20037;-84
2021/12/22 00:58:48;;;;;;;19.95;12.02;;;0.60;83.50;;;;;;4869420;29;20029;-84
2021/12/22 01:01:14;;;;;;;21.25;10.70;;;0.60;83.70;;;;;;4880224;29;20057;-84
2021/12/22 01:03:45;;;;;;;21.15;10.15;;;0.50;83.70;;;;;;4881085;29;20029;-84
2021/12/22 01:06:13;;;;;;;21.70;10.70;;;0.50;83.50;;;;;;4881864;29;20440;-84
2021/12/22 01:08:39;;;;;;;21.40;11.25;;;0.50;83.60;;;;;;4891565;29;20057;-84
2021/12/22 01:11:06;;;;;;;17.30;9.43;;;0.50;83.50;;;;;;4864197;29;20045;-85
2021/12/22 01:13:32;;;;;;;26.27;13.13;;;0.50;83.30;;;;;;4876147;29;20117;-84
2021/12/22 01:15:58;;;;;;;27.02;13.15;;;0.50;83.20;;;;;;4864375;29;20033;-85
2021/12/22 01:18:31;;;;;;;26.25;13.70;;;0.50;83.10;;;;;;4862357;29;20404;-85
2021/12/22 01:21:17;;;;;;;15.88;9.35;;;0.40;83.30;;;;;;4863444;29;20491;-84
2021/12/22 01:24:02;;;;;;;21.55;11.68;;;0.40;83.40;;;;;;4862748;29;20044;-85
2021/12/22 01:26:34;;;;;;;18.70;9.40;;;0.50;83.10;;;;;;4866489;29;20059;-84
2021/12/22 01:29:00;;;;;;;18.60;9.43;;;0.50;83.00;;;;;;4871334;29;20069;-85
2021/12/22 01:31:26;;;;;;;22.58;10.65;;;0.50;82.90;;;;;;4884109;29;20033;-84
2021/12/22 01:33:52;;;;;;;31.25;15.75;;;0.60;82.70;;;;;;4886046;29;20060;-85
2021/12/22 01:36:17;;;;;;;10.13;6.90;;;0.60;82.40;;;;;;4883830;29;20547;-85
2021/12/22 01:38:43;;;;;;;21.83;11.75;;;0.50;82.60;;;;;;4884774;29;20037;-85
2021/12/22 01:41:09;;;;;;;18.75;10.30;;;0.50;82.50;;;;;;4884153;29;20379;-84
2021/12/22 01:43:35;;;;;;;21.13;11.27;;;0.40;82.70;;;;;;4885209;29;20085;-85
2021/12/22 01:51:45;;;;;;;26.30;12.85;;;0.60;82.10;;;;;;4866865;29;20089;-84
2021/12/22 01:54:19;;;;;;;14.52;8.90;;;0.60;82.10;;;;;;4865387;29;20060;-85
2021/12/22 01:56:46;;;;;;;19.88;10.48;;;0.60;81.80;;;;;;4868044;29;20055;-85
2021/12/22 01:59:12;;;;;;;20.88;11.55;;;0.60;81.90;;;;;;4865221;29;20026;-84
2021/12/22 02:01:39;;;;;;;18.30;11.48;;;0.60;82.00;;;;;;4879462;29;20136;-85
2021/12/22 02:04:10;;;;;;;19.17;10.77;;;0.50;82.20;;;;;;4883731;29;20748;-85
2021/12/22 02:06:43;;;;;;;27.50;11.27;;;0.40;82.40;;;;;;4884581;29;20077;-84
2021/12/22 02:09:11;;;;;;;12.98;8.73;;;0.50;82.00;;;;;;4883493;29;20519;-84
2021/12/22 02:11:37;;;;;;;24.00;8.52;;;0.50;82.10;;;;;;4881718;29;20033;-84
2021/12/22 02:14:05;;;;;;;19.95;10.95;;;0.40;82.20;;;;;;4885500;29;20563;-84
2021/12/22 02:16:36;;;;;;;19.83;10.23;;;0.40;82.20;;;;;;4883613;29;20033;-84
2021/12/22 02:19:04;;;;;;;19.50;8.88;;;0.40;82.10;;;;;;4884555;29;20166;-84
2021/12/22 02:21:35;;;;;;;10.27;4.40;;;0.40;82.00;;;;;;4883395;29;20411;-84
2021/12/22 02:24:01;;;;;;;;;;;0.40;82.10;;;;;;4885020;29;20053;-84
2021/12/22 02:26:45;;;;;;;19.38;9.55;;;0.30;82.10;;;;;;4864651;29;19912;-84
2021/12/22 02:29:23;;;;;;;16.65;10.52;;;0.30;82.30;;;;;;4865949;29;20033;-85
2021/12/22 02:34:49;;;;;;;17.73;9.25;;;0.20;82.60;;;;;;4862594;29;20049;-84
2021/12/22 02:37:18;;;;;;;20.13;10.63;;;0.10;82.70;;;;;;4866028;29;20093;-84
2021/12/22 02:39:57;;;;;;;18.45;11.13;;;0.10;82.60;;;;;;4864768;29;20121;-84
2021/12/22 02:42:27;;;;;;;12.23;5.47;;;0.10;82.70;;;;;;4866024;29;20029;-85
2021/12/22 02:44:52;;;;;;;15.40;8.18;;;0.00;82.80;;;;;;4864508;29;20615;-84
2021/12/22 02:47:26;;;;;;;13.40;7.20;;;0.00;82.90;;;;;;4866919;29;20041;-84
2021/12/22 02:49:52;;;;;;;18.48;10.95;;;0.00;82.90;;;;;;4864352;29;20032;-84
2021/12/22 02:52:18;;;;;;;14.13;8.00;;;0.00;82.70;;;;;;4865779;29;20116;-85
2021/12/22 02:54:53;;;;;;;25.17;12.45;;;0.10;82.70;;;;;;4864244;29;20078;-85
2021/12/22 02:57:48;;;;;;;18.65;8.55;;;0.00;82.60;;;;;;4878653;29;20068;-84
2021/12/22 03:00:33;;;;;;;21.00;10.55;;;0.00;82.60;;;;;;4864555;29;20030;-84
2021/12/22 03:03:12;;;;;;;18.63;9.40;;;0.00;82.70;;;;;;4882292;29;20044;-84
2021/12/22 03:05:39;;;;;;;17.90;8.35;;;0.00;82.60;;;;;;4884648;29;20108;-85
2021/12/22 03:08:05;;;;;;;16.10;10.57;;;0.00;82.30;;;;;;4882721;29;20025;-84
2021/12/22 03:10:32;;;;;;;10.65;7.65;;;0.00;82.40;;;;;;4881973;29;20036;-84
2021/12/22 03:13:02;;;;;;;15.75;8.27;;;0.00;82.30;;;;;;4882505;29;20025;-84
2021/12/22 03:15:28;;;;;;;21.33;9.85;;;0.00;82.20;;;;;;4883734;29;20037;-85
2021/12/22 03:17:54;;;;;;;12.32;8.38;;;0.00;82.40;;;;;;4863833;29;20040;-84
2021/12/22 03:20:30;;;;;;;16.02;7.70;;;0.00;82.30;;;;;;4864670;29;20049;-84
2021/12/22 03:22:55;;;;;;;21.63;9.70;;;0.00;82.30;;;;;;4864427;29;20065;-85
2021/12/22 03:25:26;;;;;;;16.08;9.15;;;0.00;82.30;;;;;;4868572;29;20032;-84
2021/12/22 03:27:53;;;;;;;17.05;8.23;;;0.00;82.20;;;;;;4898588;29;20135;-84
2021/12/22 03:30:22;;;;;;;10.63;7.63;;;0.00;82.10;;;;;;4882282;29;20060;-84
2021/12/22 03:32:48;;;;;;;12.98;7.10;;;0.00;82.40;;;;;;4883331;29;20056;-84
2021/12/22 03:35:18;;;;;;;20.80;9.27;;;0.00;82.50;;;;;;4882303;29;20044;-84
2021/12/22 03:37:52;;;;;;;15.10;7.00;;;0.00;82.40;;;;;;4883688;29;20028;-85
2021/12/22 03:40:18;;;;;;;17.10;9.55;;;0.00;82.40;;;;;;4882167;29;20033;-84
2021/12/22 03:42:44;;;;;;;17.02;8.70;;;0.00;82.30;;;;;;4881370;29;20064;-84
2021/12/22 03:45:10;;;;;;;26.77;11.57;;;0.00;82.10;;;;;;4883592;29;20025;-84
2021/12/22 03:47:36;;;;;;;19.38;10.18;;;0.00;82.10;;;;;;4895048;29;20037;-84
2021/12/22 03:50:03;;;;;;;20.23;10.05;;;-0.10;82.30;;;;;;4883723;29;20420;-84
2021/12/22 03:52:29;;;;;;;28.13;13.55;;;-0.10;82.40;;;;;;4874843;29;20025;-84
2021/12/22 03:54:58;;;;;;;21.27;11.50;;;-0.20;82.50;;;;;;4865026;29;20029;-85
2021/12/22 03:57:28;;;;;;;19.38;10.82;;;-0.10;82.60;;;;;;4876937;29;20026;-84
2021/12/22 03:59:57;;;;;;;13.55;7.70;;;-0.10;82.50;;;;;;4863269;29;20116;-84
2021/12/22 04:02:24;;;;;;;23.10;10.73;;;-0.10;82.50;;;;;;4882917;29;20106;-85
2021/12/22 04:04:50;;;;;;;20.67;10.63;;;-0.10;82.60;;;;;;4881646;29;20499;-84
2021/12/22 04:07:17;;;;;;;16.58;8.10;;;-0.10;82.70;;;;;;4883415;29;20021;-84
2021/12/22 04:09:43;;;;;;;34.55;13.43;;;-0.10;82.60;;;;;;4881204;29;20040;-84
2021/12/22 04:12:09;;;;;;;20.95;11.45;;;-0.10;82.50;;;;;;4883466;29;20033;-84
2021/12/22 04:14:35;;;;;;;19.80;10.07;;;-0.20;82.30;;;;;;4881552;29;20065;-84
2021/12/22 04:17:00;;;;;;;16.50;8.05;;;-0.10;82.40;;;;;;4880292;29;20760;-85
2021/12/22 04:19:26;;;;;;;21.83;12.05;;;-0.10;82.20;;;;;;4882800;29;20036;-85
2021/12/22 04:21:52;;;;;;;16.63;8.60;;;-0.10;82.30;;;;;;4881358;29;20061;-84
2021/12/22 04:24:19;;;;;;;16.08;7.78;;;-0.10;82.50;;;;;;4883175;29;20411;-84
2021/12/22 04:26:46;;;;;;;17.20;7.65;;;-0.10;82.20;;;;;;4879958;29;20033;-84
2021/12/22 04:29:12;;;;;;;26.27;10.73;;;0.00;82.20;;;;;;4864497;29;20030;-84
2021/12/22 04:31:39;;;;;;;21.98;10.75;;;-0.10;82.30;;;;;;4862711;29;20021;-85
2021/12/22 04:34:08;;;;;;;13.27;6.80;;;-0.10;82.30;;;;;;4862631;29;20112;-85
2021/12/22 04:36:35;;;;;;;8.27;7.25;;;-0.20;82.60;;;;;;4862557;29;20033;-84
2021/12/22 04:39:01;;;;;;;20.02;9.05;;;-0.20;82.80;;;;;;4868820;29;20449;-84
2021/12/22 04:41:27;;;;;;;24.63;10.60;;;-0.30;83.10;;;;;;4882791;29;20052;-84
2021/12/22 04:43:53;;;;;;;21.77;11.00;;;-0.30;83.00;;;;;;4881087;29;20068;-84
2021/12/22 04:46:21;;;;;;;17.02;9.40;;;-0.20;83.10;;;;;;4864390;29;20508;-84
2021/12/22 04:48:47;;;;;;;12.35;9.00;;;-0.20;83.10;;;;;;4862351;29;20035;-84
2021/12/22 04:51:34;;;;;;;13.35;7.55;;;-0.10;82.80;;;;;;4862398;29;20028;-85
2021/12/22 04:54:14;;;;;;;17.83;8.77;;;-0.10;82.60;;;;;;4878175;29;20042;-84
2021/12/22 04:56:39;;;;;;;10.77;8.82;;;0.00;82.50;;;;;;4862977;29;20029;-84
2021/12/22 04:59:06;;;;;;;13.65;8.77;;;-0.10;82.90;;;;;;4866832;29;20455;-84
2021/12/22 05:01:31;;;;;;;16.27;10.43;;;-0.20;82.80;;;;;;4870843;29;20049;-84
2021/12/22 05:03:57;;;;;;;24.00;12.23;;;-0.10;82.80;;;;;;4886620;29;20029;-84
2021/12/22 05:06:24;;;;;;;11.57;6.97;;;-0.20;83.30;;;;;;4884248;29;20037;-85
2021/12/22 05:08:50;;;;;;;24.17;11.48;;;-0.10;83.20;;;;;;4885804;29;20116;-82
2021/12/22 05:11:16;;;;;;;16.05;8.73;;;-0.10;82.90;;;;;;4884861;29;20052;-84
2021/12/22 05:13:41;;;;;;;25.55;9.73;;;-0.10;83.00;;;;;;4869260;29;20487;-84
2021/12/22 05:16:15;;;;;;;17.67;9.27;;;0.00;83.00;;;;;;4866350;29;20030;-84
2021/12/22 05:19:10;;;;;;;17.48;9.30;;;-0.10;82.90;;;;;;4865948;29;20050;-84
2021/12/22 05:21:36;;;;;;;24.00;10.30;;;0.00;82.90;;;;;;4867545;29;20034;-84
2021/12/22 05:24:02;;;;;;;12.30;7.72;;;0.00;82.80;;;;;;4864613;29;20560;-84
2021/12/22 05:26:28;;;;;;;16.17;8.68;;;0.00;82.80;;;;;;4867324;29;20053;-84
2021/12/22 05:28:57;;;;;;;17.05;9.98;;;0.00;82.90;;;;;;4872481;29;20032;-84
2021/12/22 05:31:27;;;;;;;27.08;14.20;;;0.00;82.80;;;;;;4899300;29;20025;-84
2021/12/22 05:33:53;;;;;;;17.60;7.15;;;0.10;82.90;;;;;;4883871;29;20463;-85
2021/12/22 05:36:19;;;;;;;17.83;9.45;;;0.00;82.60;;;;;;4883824;29;20036;-84
2021/12/22 05:38:45;;;;;;;22.85;9.52;;;0.00;82.80;;;;;;4884670;29;20037;-84
2021/12/22 05:41:11;;;;;;;17.13;9.98;;;0.00;82.70;;;;;;4884253;29;20085;-84
2021/12/22 05:43:43;;;;;;;22.63;11.30;;;0.00;82.70;;;;;;4886520;29;20555;-85
2021/12/22 05:46:09;;;;;;;22.33;10.60;;;0.00;82.50;;;;;;4883352;29;20021;-82
2021/12/22 05:48:37;;;;;;;19.45;9.80;;;0.00;82.80;;;;;;4884690;29;20029;-82
2021/12/22 05:51:02;;;;;;;12.02;7.30;;;0.00;82.60;;;;;;4884048;29;20102;-80
2021/12/22 05:53:30;;;;;;;18.73;9.95;;;0.00;82.60;;;;;;4883275;29;20068;-82
2021/12/22 05:55:56;;;;;;;16.75;9.63;;;0.00;82.60;;;;;;4884278;29;20120;-79
2021/12/22 05:58:22;;;;;;;13.27;9.23;;;0.00;82.80;;;;;;4883346;29;20060;-84
2021/12/22 06:00:49;;;;;;;16.00;9.15;;;-0.10;83.10;;;;;;4866225;29;20045;-84
2021/12/22 06:03:15;;;;;;;14.93;8.85;;;0.00;83.10;;;;;;4863602;29;20765;-80
2021/12/22 06:05:41;;;;;;;23.35;9.02;;;0.00;82.90;;;;;;4866944;29;20040;-89
2021/12/22 06:08:08;;;;;;;17.58;8.15;;;0.10;82.90;;;;;;4880292;29;20120;-86
2021/12/22 06:10:34;;;;;;;20.70;9.68;;;0.10;82.60;;;;;;4882914;29;20112;-87
2021/12/22 06:13:05;;;;;;;17.73;9.82;;;0.00;82.70;;;;;;4875095;29;20041;-81
2021/12/22 06:15:31;;;;;;;;;;;0.10;83.00;;;;;;4863223;29;20048;-80
2021/12/22 06:17:58;;;;;;;23.25;10.45;;;0.00;82.60;;;;;;4864910;29;20385;-80
2021/12/22 06:20:25;;;;;;;16.67;10.00;;;0.00;82.40;;;;;;4864598;29;20085;-80
2021/12/22 06:22:51;;;;;;;15.25;8.40;;;0.00;82.50;;;;;;4878491;29;20037;-80
2021/12/22 06:25:17;;;;;;;19.60;9.77;;;0.00;82.60;;;;;;4864912;29;20392;-80
2021/12/22 06:27:43;;;;;;;14.43;7.30;;;0.10;82.50;;;;;;4864727;29;20021;-80
2021/12/22 06:30:09;;;;;;;20.50;9.18;;;0.10;82.50;;;;;;4877587;29;20044;-80
2021/12/22 06:32:35;;;;;;;17.10;9.60;;;0.20;82.30;;;;;;4882354;29;20068;-80
2021/12/22 06:35:01;;;;;;;17.17;9.38;;;0.20;82.20;;;;;;4868274;29;20033;-81
2021/12/22 06:37:27;;;;;;;13.25;7.32;;;0.20;81.90;;;;;;4883068;29;20515;-80
2021/12/22 06:39:53;;;;;;;16.75;9.98;;;0.20;81.80;;;;;;4876028;29;20457;-80
2021/12/22 06:42:18;;;;;;;9.63;7.35;;;0.20;82.10;;;;;;4870793;29;20021;-81
2021/12/22 06:44:44;;;;;;;14.80;8.77;;;0.10;82.50;;;;;;4881873;29;20037;-82
2021/12/22 06:47:10;;;;;;;21.38;11.63;;;0.10;82.50;;;;;;4882864;29;20031;-79
2021/12/22 06:49:37;;;;;;;18.40;8.93;;;0.10;82.20;;;;;;4882736;29;20029;-79
2021/12/22 06:52:03;;;;;;;10.43;8.48;;;0.10;82.20;;;;;;4880685;29;20037;-78
2021/12/22 06:54:29;;;;;;;20.27;11.65;;;0.10;82.10;;;;;;4878559;29;20043;-78
2021/12/22 06:56:55;;;;;;;20.60;10.95;;;0.20;82.00;;;;;;4896973;29;20218;-78
2021/12/22 06:59:21;;;;;;;18.67;9.35;;;0.10;82.00;;;;;;4879072;29;20036;-78
2021/12/22 07:01:47;;;;;;;16.98;8.52;;;0.00;82.30;;;;;;4880284;29;20049;-78
2021/12/22 07:04:13;;;;;;;25.17;10.38;;;0.00;82.30;;;;;;4879376;29;20032;-78
2021/12/22 07:06:39;;;;;;;24.70;12.48;;;0.10;82.50;;;;;;4880550;29;20115;-78
2021/12/22 07:09:07;;;;;;;20.60;11.30;;;0.00;82.50;;;;;;4879899;29;20116;-78
2021/12/22 07:11:36;;;;;;;23.65;11.57;;;0.00;82.70;;;;;;4881789;29;20021;-79
2021/12/22 07:14:09;;;;;;;13.60;8.70;;;0.00;82.60;;;;;;4881660;29;20037;-78
2021/12/22 07:16:35;;;;;;;16.55;9.55;;;0.00;82.80;;;;;;4886391;29;20247;-78
2021/12/22 07:19:01;;;;;;;19.05;8.77;;;0.00;82.60;;;;;;4877604;29;21065;-78
2021/12/22 07:21:27;;;;;;;15.35;10.30;;;0.10;82.40;;;;;;4876162;29;20025;-78
2021/12/22 07:23:53;;;;;;;20.83;10.05;;;0.10;82.30;;;;;;4881110;29;20031;-77
2021/12/22 07:26:18;;;;;;;16.73;8.85;;;0.10;82.20;;;;;;4880307;29;20029;-78
2021/12/22 07:28:47;;;;;;;25.33;10.75;;;0.00;82.40;;;;;;4881286;29;20064;-78
2021/12/22 07:31:18;;;;;;;11.05;7.43;;;0.00;82.50;;;;;;4880199;29;20036;-78
2021/12/22 07:33:56;;;;;;;11.82;6.90;;;0.00;82.70;;;;;;4872820;29;20082;-78
2021/12/22 09:05:00;;;;;;;15.25;10.20;;;-1.10;87.50;;;;;;5107400;27;20376;-82
2021/12/22 09:07:26;;;;;;;10.93;7.35;;;-1.00;87.40;;;;;;5106198;28;20028;-78
2021/12/22 09:09:51;;;;;;;12.63;7.40;;;-0.70;86.80;;;;;;5105368;28;20034;-79
2021/12/22 09:12:17;;;;;;;22.60;10.40;;;-0.40;86.10;;;;;;5108013;28;20028;-78
2021/12/22 09:14:43;;;;;;;21.23;10.65;;;-0.10;84.70;;;;;;5106491;28;20100;-78
2021/12/22 09:17:09;;;;;;;12.60;8.07;;;0.00;84.30;;;;;;5108435;28;20034;-76
2021/12/22 09:19:34;;;;;;;18.35;11.07;;;0.10;83.00;;;;;;5107352;28;20072;-78
2021/12/22 09:22:00;;;;;;;13.98;6.10;;;0.10;82.80;;;;;;5110251;28;20511;-78
2021/12/22 09:24:27;;;;;;;24.73;13.35;;;0.20;82.80;;;;;;5107811;28;20122;-78
2021/12/22 09:26:52;;;;;;;26.33;10.95;;;0.30;82.40;;;;;;5107840;28;20016;-78
2021/12/22 09:29:18;;;;;;;19.40;11.27;;;0.40;82.20;;;;;;5108342;28;20031;-78
2021/12/22 09:31:44;;;;;;;17.90;8.85;;;0.40;81.80;;;;;;5106296;28;20024;-78
2021/12/22 09:34:09;;;;;;;20.83;10.48;;;0.50;82.00;;;;;;5108396;28;20053;-76
2021/12/22 09:36:35;;;;;;;28.67;11.32;;;0.60;81.40;;;;;;5108204;28;20020;-78
2021/12/22 09:39:02;;;;;;;18.55;11.27;;;0.70;81.20;;;;;;5110269;28;20026;-79
2021/12/22 09:41:28;;;;;;;9.70;6.90;;;0.70;81.00;;;;;;5109613;28;20066;-78
2021/12/22 09:43:55;;;;;;;14.10;7.97;;;0.60;81.00;;;;;;5103972;28;20040;-76
2021/12/22 09:46:23;;;;;;;18.02;9.27;;;0.60;81.10;;;;;;5109408;28;20023;-78
2021/12/22 09:48:53;;;;;;;24.67;11.93;;;0.60;81.10;;;;;;5109421;28;20023;-79
2021/12/22 09:53:51;;;;;;;19.83;9.75;;;0.60;81.00;;;;;;5109930;28;20051;-79
2021/12/22 09:56:21;;;;;;;20.55;12.70;;;0.50;81.20;;;;;;5104699;28;20018;-78
2021/12/22 09:58:48;;;;;;;29.90;15.13;;;0.60;81.40;;;;;;5109092;28;20031;-78
2021/12/22 10:01:17;;;;;;;10.02;6.63;;;0.50;81.10;;;;;;5106174;28;20024;-79
2021/12/22 10:03:43;;;;;;;17.60;9.32;;;0.60;81.30;;;;;;5104044;28;20517;-76
2021/12/22 10:06:09;;;;;;;32.38;15.38;;;0.60;81.50;;;;;;5105091;28;20032;-76
2021/12/22 10:08:39;;;;;;;24.02;10.68;;;0.70;81.40;;;;;;5106325;28;20094;-76
2021/12/22 10:11:10;;;;;;;16.15;10.30;;;0.70;80.50;;;;;;5107757;28;20020;-76
2021/12/22 10:13:38;;;;;;;24.30;10.68;;;0.60;80.80;;;;;;5105881;28;20097;-76
2021/12/22 10:16:16;;;;;;;17.75;11.57;;;0.60;80.90;;;;;;5092507;28;20051;-76
2021/12/22 10:18:41;;;;;;;24.67;13.07;;;0.60;81.20;;;;;;5088112;28;20028;-78
2021/12/22 10:21:17;;;;;;;14.50;9.15;;;0.80;81.10;;;;;;5091591;28;20401;-76
2021/12/22 10:23:46;;;;;;;18.73;10.68;;;0.90;80.20;;;;;;5094460;28;20039;-75
2021/12/22 10:26:19;;;;;;;22.95;11.40;;;0.90;80.50;;;;;;5092059;28;20027;-76
2021/12/22 10:28:47;;;;;;;15.80;8.45;;;1.00;80.20;;;;;;5093911;28;20020;-76
2021/12/22 10:31:13;;;;;;;13.88;9.10;;;1.00;80.30;;;;;;5090730;28;20090;-78
2021/12/22 10:33:42;;;;;;;11.32;6.50;;;1.10;79.80;;;;;;5093582;28;20036;-76
2021/12/22 10:36:17;;;;;;;25.73;10.90;;;1.20;79.70;;;;;;5078242;28;20532;-78
2021/12/22 10:38:53;;;;;;;29.15;10.77;;;1.10;79.20;;;;;;5076768;28;20029;-76
2021/12/22 10:41:21;;;;;;;15.40;8.32;;;0.90;79.30;;;;;;5085652;28;20024;-76
2021/12/22 10:43:50;;;;;;;14.43;8.40;;;0.80;79.80;;;;;;5092758;28;20039;-76
2021/12/22 10:46:31;;;;;;;23.52;12.77;;;0.90;80.20;;;;;;5078049;28;20047;-76
2021/12/22 10:49:15;;;;;;;19.17;9.18;;;0.90;80.30;;;;;;5088617;28;20060;-76
2021/12/22 10:51:56;;;;;;;12.02;8.85;;;0.90;80.30;;;;;;5081129;28;20401;-76
2021/12/22 10:54:34;;;;;;;21.05;11.15;;;0.80;80.50;;;;;;5075941;28;20032;-76
2021/12/22 10:57:04;;;;;;;15.68;9.32;;;0.70;80.50;;;;;;5076232;28;20024;-76
2021/12/22 10:59:49;;;;;;;26.75;13.00;;;0.70;80.90;;;;;;5092215;28;20050;-78
2021/12/22 11:02:27;;;;;;;28.70;14.80;;;0.70;81.40;;;;;;5059573;28;20104;-76
2021/12/22 11:04:53;;;;;;;23.35;11.38;;;0.80;81.20;;;;;;5060109;28;20515;-76
2021/12/22 11:07:28;;;;;;;29.40;14.32;;;0.90;80.80;;;;;;5056175;28;20025;-76
2021/12/22 11:09:54;;;;;;;22.90;10.82;;;1.00;80.80;;;;;;5056440;28;20031;-79
2021/12/22 11:12:37;;;;;;;26.70;12.65;;;1.00;80.60;;;;;;5070593;28;20024;-76
2021/12/22 11:15:05;;;;;;;21.65;9.32;;;1.00;80.20;;;;;;5071589;28;20035;-76
2021/12/22 11:17:31;;;;;;;19.40;9.82;;;1.20;79.90;;;;;;5069240;28;20060;-81
2021/12/22 11:20:05;;;;;;;20.65;12.48;;;1.20;79.70;;;;;;5068124;28;20067;-79
2021/12/22 11:22:53;;;;;;;15.65;9.23;;;1.10;79.50;;;;;;5075191;28;21603;-79
2021/12/22 11:25:20;;;;;;;27.05;12.57;;;1.10;79.60;;;;;;5072867;28;20067;-79
2021/12/22 11:27:49;;;;;;;22.95;11.13;;;0.90;79.80;;;;;;5070742;28;20069;-82
2021/12/22 11:30:15;;;;;;;17.83;9.32;;;1.00;80.30;;;;;;5064075;28;20028;-79
2021/12/22 11:32:41;;;;;;;14.80;9.43;;;1.10;79.90;;;;;;5061590;28;20033;-77
2021/12/22 11:35:09;;;;;;;17.60;9.10;;;1.20;80.10;;;;;;5064083;28;20029;-77
2021/12/22 11:37:35;;;;;;;20.83;8.25;;;1.20;79.50;;;;;;5058518;28;20029;-77
2021/12/22 11:40:03;;;;;;;26.30;11.55;;;1.50;79.40;;;;;;5070750;28;20017;-77
2021/12/22 11:42:37;;;;;;;22.67;12.10;;;1.50;78.80;;;;;;5058064;28;20473;-77
2021/12/22 11:45:10;;;;;;;24.48;12.70;;;1.60;78.80;;;;;;5058005;28;20039;-77
2021/12/22 11:47:39;;;;;;;19.65;11.23;;;1.60;79.00;;;;;;5070607;28;20042;-77
2021/12/22 11:50:06;;;;;;;32.90;14.73;;;1.60;78.90;;;;;;5062841;28;20104;-77
2021/12/22 11:52:43;;;;;;;16.92;8.93;;;1.70;78.80;;;;;;5063955;28;20024;-77
2021/12/22 11:55:10;;;;;;;17.48;8.45;;;1.60;77.90;;;;;;5059185;28;20029;-76
2021/12/22 11:57:37;;;;;;;14.02;8.30;;;1.60;78.10;;;;;;5051737;28;20032;-77
2021/12/22 12:00:26;;;;;;;22.33;10.23;;;1.70;77.50;;;;;;5062357;28;20029;-77
2021/12/22 12:02:53;;;;;;;28.23;12.02;;;1.50;77.50;;;;;;5054904;28;20029;-77
2021/12/22 12:05:30;;;;;;;24.25;12.63;;;1.60;78.40;;;;;;5057950;28;20025;-77
2021/12/22 12:08:04;;;;;;;34.88;15.00;;;1.60;77.80;;;;;;5050674;28;21409;-78
2021/12/22 12:10:45;;;;;;;20.60;10.55;;;1.50;78.00;;;;;;5056807;28;20017;-77
2021/12/22 12:13:27;;;;;;;19.77;10.25;;;1.60;78.50;;;;;;5053725;28;20021;-77
2021/12/22 12:22:11;;;;;;;26.20;12.68;;;1.80;77.80;;;;;;5055236;28;20066;-77
2021/12/22 12:24:44;;;;;;;19.85;12.13;;;1.80;77.60;;;;;;5053821;28;20029;-77
2021/12/22 12:27:29;;;;;;;27.10;14.98;;;1.80;77.80;;;;;;5053064;28;20518;-78
2021/12/22 12:30:04;;;;;;;24.67;12.23;;;1.80;77.20;;;;;;5053540;28;20172;-81
2021/12/22 12:32:39;;;;;;;15.70;9.15;;;1.70;77.50;;;;;;5059867;28;20561;-79
2021/12/22 12:35:20;;;;;;;15.13;9.05;;;1.70;78.00;;;;;;5060163;28;20033;-79
2021/12/22 12:38:07;;;;;;;25.85;13.05;;;1.60;78.20;;;;;;5064223;28;20062;-80
2021/12/22 12:40:54;;;;;;;20.38;10.90;;;1.70;78.20;;;;;;5068851;28;20085;-80
2021/12/22 12:43:44;;;;;;;23.23;12.18;;;1.70;78.10;;;;;;5060695;28;20039;-80
2021/12/22 12:46:37;;;;;;;20.00;11.07;;;1.80;77.90;;;;;;5067918;28;20032;-80
2021/12/22 12:49:02;;;;;;;25.42;11.00;;;1.70;78.20;;;;;;5063554;28;20106;-80
2021/12/22 12:51:33;;;;;;;24.60;11.98;;;1.70;78.50;;;;;;5061038;28;20025;-79
2021/12/22 12:54:17;;;;;;;30.73;15.52;;;1.60;78.40;;;;;;5054671;28;20536;-80
2021/12/22 12:56:54;;;;;;;27.30;13.25;;;1.50;78.30;;;;;;5065594;28;20045;-87
2021/12/22 12:59:27;;;;;;;19.35;10.95;;;1.70;78.70;;;;;;5069922;28;20025;-87
2021/12/22 13:01:52;;;;;;;19.27;9.68;;;1.70;78.50;;;;;;5055924;28;20025;-87
2021/12/22 13:04:34;;;;;;;15.95;8.82;;;1.70;78.50;;;;;;5063403;28;20579;-88
2021/12/22 13:07:00;;;;;;;24.42;12.20;;;1.80;78.60;;;;;;5051929;28;20036;-86
2021/12/22 13:09:33;;;;;;;20.42;11.63;;;1.70;78.80;;;;;;5061297;28;20025;-86
2021/12/22 13:12:14;;;;;;;30.25;15.80;;;1.80;78.70;;;;;;5056735;28;20070;-86
2021/12/22 13:17:29;;;;;;;20.55;11.27;;;1.90;78.20;;;;;;5053735;28;20035;-87
2021/12/22 13:19:56;;;;;;;29.92;13.50;;;1.90;78.00;;;;;;5062834;28;20040;-88
2021/12/22 13:22:24;;;;;;;25.67;13.02;;;1.90;77.80;;;;;;5056616;28;20063;-86
2021/12/22 13:25:11;;;;;;;22.08;11.98;;;2.00;77.90;;;;;;5052576;28;20025;-86
2021/12/22 13:27:39;;;;;;;25.92;13.80;;;1.80;78.10;;;;;;5052657;28;20116;-87
2021/12/22 13:30:09;;;;;;;27.55;12.00;;;1.80;78.20;;;;;;5059852;28;20025;-87
2021/12/22 13:32:55;;;;;;;18.33;9.77;;;1.90;78.30;;;;;;5062601;28;20021;-86
2021/12/22 13:35:34;;;;;;;24.23;13.32;;;2.00;78.20;;;;;;5052410;28;20033;-87
2021/12/22 13:38:09;;;;;;;26.75;10.63;;;1.90;78.30;;;;;;5054062;28;20116;-87
2021/12/22 13:40:52;;;;;;;23.90;12.88;;;1.90;78.60;;;;;;5057536;28;20520;-87
2021/12/22 13:43:38;;;;;;;29.13;14.00;;;1.70;78.90;;;;;;5067340;28;20110;-87
2021/12/22 13:46:10;;;;;;;19.15;10.30;;;1.80;78.90;;;;;;5055615;28;20021;-87
2021/12/22 13:48:55;;;;;;;23.27;10.18;;;1.70;78.90;;;;;;5054757;28;20029;-86
2021/12/22 13:51:28;;;;;;;17.95;10.23;;;1.70;78.80;;;;;;5062095;28;20044;-87
2021/12/22 13:53:56;;;;;;;18.23;10.95;;;1.80;79.00;;;;;;5055731;28;20037;-86
2021/12/22 13:56:23;;;;;;;24.73;13.10;;;1.70;79.00;;;;;;5056667;28;20504;-87
2021/12/22 13:59:00;;;;;;;23.38;12.50;;;1.70;79.40;;;;;;5059833;28;20025;-87
2021/12/22 14:01:27;;;;;;;30.70;11.88;;;1.80;78.80;;;;;;5056301;28;20976;-87
2021/12/22 14:03:58;;;;;;;30.65;14.10;;;1.80;78.90;;;;;;5056251;28;20141;-87
2021/12/22 14:06:27;;;;;;;25.95;13.68;;;1.80;79.10;;;;;;5070822;28;20158;-87
2021/12/22 14:09:20;;;;;;;30.38;15.55;;;1.80;79.30;;;;;;5073203;28;20244;-87
2021/12/22 14:12:10;;;;;;;19.77;7.80;;;1.80;79.40;;;;;;5060071;28;20029;-86
2021/12/22 14:14:42;;;;;;;27.45;13.93;;;1.70;79.50;;;;;;5069200;28;20039;-86
2021/12/22 14:17:10;;;;;;;20.02;11.88;;;1.70;79.80;;;;;;5068940;28;20032;-87
2021/12/22 14:19:43;;;;;;;23.23;12.05;;;1.70;79.70;;;;;;5065699;28;20028;-87
2021/12/22 14:22:19;;;;;;;21.52;12.73;;;1.70;79.80;;;;;;5056584;28;20562;-88
2021/12/22 14:25:04;;;;;;;24.48;12.73;;;1.70;79.70;;;;;;5055787;28;20040;-87
2021/12/22 14:27:32;;;;;;;20.17;10.10;;;1.70;79.90;;;;;;5057434;28;20025;-84
2021/12/22 14:29:58;;;;;;;21.05;11.80;;;1.70;80.00;;;;;;5051334;28;20133;-86
2021/12/22 14:32:26;;;;;;;17.45;9.15;;;1.70;80.10;;;;;;5057786;28;20013;-86
2021/12/22 14:35:08;;;;;;;25.58;11.30;;;1.60;80.20;;;;;;5055309;28;20039;-86
2021/12/22 14:37:38;;;;;;;15.35;8.60;;;1.50;80.80;;;;;;5069805;28;20040;-87
2021/12/22 14:40:22;;;;;;;15.13;9.13;;;1.50;80.70;;;;;;5074582;28;20027;-86
2021/12/22 14:43:03;;;;;;;22.70;12.38;;;1.40;81.10;;;;;;5062098;28;20024;-87
2021/12/22 14:45:37;;;;;;;15.93;9.88;;;1.40;81.30;;;;;;5061013;28;20654;-86